sensor_id;sensor_type;location;lat;lon;timestamp;pressure;altitude;pressure_sealevel;temperature;humidity
43364;BME280;40636;52.424;-1.948;2023-05-20T00:01:14;101238.41;;;9.87;100.00
43364;BME280;40636;52.424;-1.948;2023-05-20T00:03:40;101239.66;;;9.91;100.00
43364;BME280;40636;52.424;-1.948;2023-05-20T00:06:10;101243.88;;;10.00;100.00
43364;BME280;40636;52.424;-1.948;2023-05-20T00:08:37;101244.69;;;10.01;100.00
43364;BME280;40636;52.424;-1.948;2023-05-20T00:11:03;101235.00;;;10.05;100.00
43364;BME280;40636;52.424;-1.948;2023-05-20T00:13:30;101236.25;;;10.02;100.00
43364;BME280;40636;52.424;-1.948;2023-05-20T00:15:57;101244.06;;;10.05;100.00
43364;BME280;40636;52.424;-1.948;2023-05-20T00:18:24;101244.47;;;10.02;100.00
43364;BME280;40636;52.424;-1.948;2023-05-20T00:20:50;101245.75;;;10.00;100.00
43364;BME280;40636;52.424;-1.948;2023-05-20T00:23:19;101246.81;;;10.05;100.00
43364;BME280;40636;52.424;-1.948;2023-05-20T00:25:46;101242.81;;;10.01;100.00
43364;BME280;40636;52.424;-1.948;2023-05-20T00:28:13;101243.88;;;10.00;100.00
43364;BME280;40636;52.424;-1.948;2023-05-20T00:30:44;101254.00;;;10.00;100.00
43364;BME280;40636;52.424;-1.948;2023-05-20T00:33:11;101257.56;;;9.94;100.00
43364;BME280;40636;52.424;-1.948;2023-05-20T00:35:38;101254.66;;;9.82;100.00
43364;BME280;40636;52.424;-1.948;2023-05-20T00:38:04;101254.00;;;9.80;100.00
43364;BME280;40636;52.424;-1.948;2023-05-20T00:40:31;101259.09;;;9.83;100.00
43364;BME280;40636;52.424;-1.948;2023-05-20T00:42:58;101255.06;;;9.79;100.00
43364;BME280;40636;52.424;-1.948;2023-05-20T00:45:25;101254.47;;;9.77;100.00
43364;BME280;40636;52.424;-1.948;2023-05-20T00:47:51;101242.66;;;9.70;100.00
43364;BME280;40636;52.424;-1.948;2023-05-20T00:50:18;101248.13;;;9.70;100.00
43364;BME280;40636;52.424;-1.948;2023-05-20T00:52:46;101247.09;;;9.57;100.00
43364;BME280;40636;52.424;-1.948;2023-05-20T00:55:13;101245.19;;;9.51;100.00
43364;BME280;40636;52.424;-1.948;2023-05-20T00:57:40;101251.75;;;9.50;100.00
43364;BME280;40636;52.424;-1.948;2023-05-20T01:00:08;101250.69;;;9.51;100.00
43364;BME280;40636;52.424;-1.948;2023-05-20T01:02:36;101244.38;;;9.51;100.00
43364;BME280;40636;52.424;-1.948;2023-05-20T01:05:03;101258.25;;;9.49;100.00
43364;BME280;40636;52.424;-1.948;2023-05-20T01:07:30;101242.69;;;9.50;100.00
43364;BME280;40636;52.424;-1.948;2023-05-20T01:09:58;101255.97;;;9.46;100.00
43364;BME280;40636;52.424;-1.948;2023-05-20T01:12:28;101241.41;;;9.39;100.00
43364;BME280;40636;52.424;-1.948;2023-05-20T01:15:08;101249.81;;;9.31;100.00
43364;BME280;40636;52.424;-1.948;2023-05-20T01:17:42;101251.94;;;9.29;100.00
43364;BME280;40636;52.424;-1.948;2023-05-20T01:20:12;101247.28;;;9.16;100.00
43364;BME280;40636;52.424;-1.948;2023-05-20T01:22:52;101243.09;;;9.13;100.00
43364;BME280;40636;52.424;-1.948;2023-05-20T01:25:19;101246.88;;;9.19;100.00
43364;BME280;40636;52.424;-1.948;2023-05-20T01:27:47;101244.75;;;9.08;100.00
43364;BME280;40636;52.424;-1.948;2023-05-20T01:30:15;101243.91;;;9.07;100.00
43364;BME280;40636;52.424;-1.948;2023-05-20T01:32:47;101246.00;;;8.99;100.00
43364;BME280;40636;52.424;-1.948;2023-05-20T01:35:16;101239.06;;;9.03;100.00
43364;BME280;40636;52.424;-1.948;2023-05-20T01:37:44;101246.44;;;8.96;100.00
43364;BME280;40636;52.424;-1.948;2023-05-20T01:40:14;101246.22;;;8.97;100.00
43364;BME280;40636;52.424;-1.948;2023-05-20T01:42:42;101244.53;;;8.89;100.00
43364;BME280;40636;52.424;-1.948;2023-05-20T01:45:09;101248.31;;;8.82;100.00
43364;BME280;40636;52.424;-1.948;2023-05-20T01:47:36;101246.38;;;8.76;100.00
43364;BME280;40636;52.424;-1.948;2023-05-20T01:50:04;101240.50;;;8.72;100.00
43364;BME280;40636;52.424;-1.948;2023-05-20T01:52:30;101242.19;;;8.73;100.00
43364;BME280;40636;52.424;-1.948;2023-05-20T01:55:00;101243.81;;;8.61;100.00
43364;BME280;40636;52.424;-1.948;2023-05-20T01:57:27;101241.69;;;8.50;100.00
43364;BME280;40636;52.424;-1.948;2023-05-20T01:59:56;101245.84;;;8.39;100.00
43364;BME280;40636;52.424;-1.948;2023-05-20T02:02:25;101248.53;;;8.32;100.00
43364;BME280;40636;52.424;-1.948;2023-05-20T02:05:07;101237.78;;;8.31;100.00
43364;BME280;40636;52.424;-1.948;2023-05-20T02:07:34;101238.59;;;8.25;100.00
43364;BME280;40636;52.424;-1.948;2023-05-20T02:10:00;101239.44;;;8.19;100.00
43364;BME280;40636;52.424;-1.948;2023-05-20T02:12:27;101241.50;;;8.17;100.00
43364;BME280;40636;52.424;-1.948;2023-05-20T02:14:54;101237.13;;;8.22;100.00
43364;BME280;40636;52.424;-1.948;2023-05-20T02:17:21;101231.47;;;8.24;100.00
43364;BME280;40636;52.424;-1.948;2023-05-20T02:19:48;101237.78;;;8.31;100.00
43364;BME280;40636;52.424;-1.948;2023-05-20T02:22:15;101233.13;;;8.18;100.00
43364;BME280;40636;52.424;-1.948;2023-05-20T02:24:44;101231.00;;;8.13;100.00
43364;BME280;40636;52.424;-1.948;2023-05-20T02:27:11;101239.38;;;8.12;100.00
43364;BME280;40636;52.424;-1.948;2023-05-20T02:29:41;101226.75;;;8.04;100.00
43364;BME280;40636;52.424;-1.948;2023-05-20T02:32:07;101227.13;;;8.01;100.00
43364;BME280;40636;52.424;-1.948;2023-05-20T02:34:34;101238.47;;;7.98;100.00
43364;BME280;40636;52.424;-1.948;2023-05-20T02:37:02;101232.38;;;7.96;100.00
43364;BME280;40636;52.424;-1.948;2023-05-20T02:39:33;101221.84;;;7.93;100.00
43364;BME280;40636;52.424;-1.948;2023-05-20T02:42:00;101231.72;;;7.94;100.00
43364;BME280;40636;52.424;-1.948;2023-05-20T02:44:29;101236.94;;;7.89;100.00
43364;BME280;40636;52.424;-1.948;2023-05-20T02:46:56;101230.63;;;7.88;100.00
43364;BME280;40636;52.424;-1.948;2023-05-20T02:49:23;101227.06;;;7.88;100.00
43364;BME280;40636;52.424;-1.948;2023-05-20T02:51:50;101225.56;;;7.85;100.00
43364;BME280;40636;52.424;-1.948;2023-05-20T02:54:17;101226.22;;;7.87;100.00
43364;BME280;40636;52.424;-1.948;2023-05-20T02:56:43;101223.66;;;7.79;100.00
43364;BME280;40636;52.424;-1.948;2023-05-20T02:59:13;101222.41;;;7.82;100.00
43364;BME280;40636;52.424;-1.948;2023-05-20T03:01:41;101227.47;;;7.85;100.00
43364;BME280;40636;52.424;-1.948;2023-05-20T03:04:08;101230.00;;;7.86;100.00
43364;BME280;40636;52.424;-1.948;2023-05-20T03:06:35;101229.78;;;7.88;100.00
43364;BME280;40636;52.424;-1.948;2023-05-20T03:09:03;101225.38;;;7.87;100.00
43364;BME280;40636;52.424;-1.948;2023-05-20T03:11:31;101224.69;;;7.78;100.00
43364;BME280;40636;52.424;-1.948;2023-05-20T03:13:58;101225.50;;;7.72;100.00
43364;BME280;40636;52.424;-1.948;2023-05-20T03:16:24;101223.81;;;7.71;100.00
43364;BME280;40636;52.424;-1.948;2023-05-20T03:18:53;101216.66;;;7.70;100.00
43364;BME280;40636;52.424;-1.948;2023-05-20T03:21:20;101220.06;;;7.72;100.00
43364;BME280;40636;52.424;-1.948;2023-05-20T03:23:50;101217.09;;;7.74;100.00
43364;BME280;40636;52.424;-1.948;2023-05-20T03:26:19;101212.72;;;7.79;100.00
43364;BME280;40636;52.424;-1.948;2023-05-20T03:28:51;101209.31;;;7.71;100.00
43364;BME280;40636;52.424;-1.948;2023-05-20T03:31:18;101211.78;;;7.66;100.00
43364;BME280;40636;52.424;-1.948;2023-05-20T03:33:52;101209.44;;;7.62;100.00
43364;BME280;40636;52.424;-1.948;2023-05-20T03:36:19;101207.59;;;7.63;100.00
43364;BME280;40636;52.424;-1.948;2023-05-20T03:38:58;101197.44;;;7.57;100.00
43364;BME280;40636;52.424;-1.948;2023-05-20T03:41:28;101199.97;;;7.58;100.00
43364;BME280;40636;52.424;-1.948;2023-05-20T03:44:15;101206.63;;;7.49;100.00
43364;BME280;40636;52.424;-1.948;2023-05-20T03:46:42;101209.09;;;7.37;100.00
43364;BME280;40636;52.424;-1.948;2023-05-20T03:49:19;101209.88;;;7.31;100.00
43364;BME280;40636;52.424;-1.948;2023-05-20T03:51:46;101206.03;;;7.26;100.00
43364;BME280;40636;52.424;-1.948;2023-05-20T03:54:13;101208.13;;;7.24;100.00
43364;BME280;40636;52.424;-1.948;2023-05-20T03:56:42;101207.47;;;7.22;100.00
43364;BME280;40636;52.424;-1.948;2023-05-20T03:59:09;101210.38;;;7.14;100.00
43364;BME280;40636;52.424;-1.948;2023-05-20T04:01:36;101205.09;;;7.12;100.00
43364;BME280;40636;52.424;-1.948;2023-05-20T04:04:10;101205.88;;;7.06;100.00
43364;BME280;40636;52.424;-1.948;2023-05-20T04:06:39;101213.38;;;6.97;100.00
43364;BME280;40636;52.424;-1.948;2023-05-20T04:09:06;101205.31;;;6.89;100.00
43364;BME280;40636;52.424;-1.948;2023-05-20T04:11:34;101213.22;;;6.84;100.00
43364;BME280;40636;52.424;-1.948;2023-05-20T04:14:01;101212.19;;;6.85;100.00
43364;BME280;40636;52.424;-1.948;2023-05-20T04:16:28;101214.31;;;6.90;100.00
43364;BME280;40636;52.424;-1.948;2023-05-20T04:18:57;101216.44;;;6.88;100.00
43364;BME280;40636;52.424;-1.948;2023-05-20T04:21:37;101212.41;;;6.83;100.00
43364;BME280;40636;52.424;-1.948;2023-05-20T04:24:04;101210.38;;;6.92;100.00
43364;BME280;40636;52.424;-1.948;2023-05-20T04:26:37;101214.00;;;6.99;100.00
43364;BME280;40636;52.424;-1.948;2023-05-20T04:29:06;101210.28;;;7.07;100.00
43364;BME280;40636;52.424;-1.948;2023-05-20T04:31:33;101206.97;;;7.11;100.00
43364;BME280;40636;52.424;-1.948;2023-05-20T04:34:02;101212.75;;;7.23;100.00
43364;BME280;40636;52.424;-1.948;2023-05-20T04:36:29;101213.47;;;7.32;100.00
43364;BME280;40636;52.424;-1.948;2023-05-20T04:38:56;101221.31;;;7.42;100.00
43364;BME280;40636;52.424;-1.948;2023-05-20T04:41:26;101219.28;;;7.50;100.00
43364;BME280;40636;52.424;-1.948;2023-05-20T04:43:55;101208.63;;;7.62;100.00
43364;BME280;40636;52.424;-1.948;2023-05-20T04:46:27;101209.06;;;7.66;100.00
43364;BME280;40636;52.424;-1.948;2023-05-20T04:48:57;101217.72;;;7.69;100.00
43364;BME280;40636;52.424;-1.948;2023-05-20T04:51:27;101216.94;;;7.82;100.00
43364;BME280;40636;52.424;-1.948;2023-05-20T04:53:58;101222.00;;;7.85;100.00
43364;BME280;40636;52.424;-1.948;2023-05-20T04:56:33;101213.78;;;7.85;100.00
43364;BME280;40636;52.424;-1.948;2023-05-20T04:59:12;101210.69;;;7.95;100.00
43364;BME280;40636;52.424;-1.948;2023-05-20T05:01:42;101211.13;;;7.98;100.00
43364;BME280;40636;52.424;-1.948;2023-05-20T05:04:09;101218.28;;;7.99;100.00
43364;BME280;40636;52.424;-1.948;2023-05-20T05:06:37;101202.06;;;7.91;100.00
43364;BME280;40636;52.424;-1.948;2023-05-20T05:09:03;101205.28;;;8.08;100.00
43364;BME280;40636;52.424;-1.948;2023-05-20T05:11:31;101204.06;;;8.10;100.00
43364;BME280;40636;52.424;-1.948;2023-05-20T05:13:58;101212.41;;;8.02;100.00
43364;BME280;40636;52.424;-1.948;2023-05-20T05:16:24;101207.78;;;8.03;100.00
43364;BME280;40636;52.424;-1.948;2023-05-20T05:18:51;101208.28;;;8.13;100.00
43364;BME280;40636;52.424;-1.948;2023-05-20T05:21:18;101210.19;;;8.19;100.00
43364;BME280;40636;52.424;-1.948;2023-05-20T05:23:45;101215.03;;;8.24;100.00
43364;BME280;40636;52.424;-1.948;2023-05-20T05:26:12;101206.84;;;8.24;100.00
43364;BME280;40636;52.424;-1.948;2023-05-20T05:28:40;101207.47;;;8.19;100.00
43364;BME280;40636;52.424;-1.948;2023-05-20T05:31:08;101203.06;;;8.25;100.00
43364;BME280;40636;52.424;-1.948;2023-05-20T05:33:35;101195.16;;;8.36;100.00
43364;BME280;40636;52.424;-1.948;2023-05-20T05:36:02;101198.88;;;8.29;100.00
43364;BME280;40636;52.424;-1.948;2023-05-20T05:38:30;101188.63;;;8.37;100.00
43364;BME280;40636;52.424;-1.948;2023-05-20T05:40:57;101193.25;;;8.37;100.00
43364;BME280;40636;52.424;-1.948;2023-05-20T05:43:23;101195.31;;;8.35;100.00
43364;BME280;40636;52.424;-1.948;2023-05-20T05:45:50;101191.56;;;8.43;100.00
43364;BME280;40636;52.424;-1.948;2023-05-20T05:48:17;101193.69;;;8.47;100.00
43364;BME280;40636;52.424;-1.948;2023-05-20T05:50:45;101196.66;;;8.52;100.00
43364;BME280;40636;52.424;-1.948;2023-05-20T05:53:12;101192.88;;;8.53;100.00
43364;BME280;40636;52.424;-1.948;2023-05-20T05:55:38;101184.44;;;8.48;100.00
43364;BME280;40636;52.424;-1.948;2023-05-20T05:58:05;101187.81;;;8.50;100.00
43364;BME280;40636;52.424;-1.948;2023-05-20T06:00:32;101186.97;;;8.56;100.00
43364;BME280;40636;52.424;-1.948;2023-05-20T06:02:59;101186.41;;;8.68;100.00
43364;BME280;40636;52.424;-1.948;2023-05-20T06:05:26;101175.66;;;8.73;100.00
43364;BME280;40636;52.424;-1.948;2023-05-20T06:07:55;101187.41;;;8.67;100.00
43364;BME280;40636;52.424;-1.948;2023-05-20T06:10:21;101184.91;;;8.85;100.00
43364;BME280;40636;52.424;-1.948;2023-05-20T06:12:48;101174.84;;;8.92;100.00
43364;BME280;40636;52.424;-1.948;2023-05-20T06:15:15;101185.56;;;8.94;100.00
43364;BME280;40636;52.424;-1.948;2023-05-20T06:17:42;101179.88;;;9.15;100.00
43364;BME280;40636;52.424;-1.948;2023-05-20T06:20:09;101178.63;;;9.24;100.00
43364;BME280;40636;52.424;-1.948;2023-05-20T06:22:36;101183.25;;;9.30;100.00
43364;BME280;40636;52.424;-1.948;2023-05-20T06:25:03;101183.66;;;9.47;100.00
43364;BME280;40636;52.424;-1.948;2023-05-20T06:27:30;101183.66;;;9.47;100.00
43364;BME280;40636;52.424;-1.948;2023-05-20T06:29:56;101185.13;;;9.56;100.00
43364;BME280;40636;52.424;-1.948;2023-05-20T06:32:23;101180.22;;;9.72;100.00
43364;BME280;40636;52.424;-1.948;2023-05-20T06:34:50;101180.47;;;9.57;100.00
43364;BME280;40636;52.424;-1.948;2023-05-20T06:37:16;101183.38;;;9.75;100.00
43364;BME280;40636;52.424;-1.948;2023-05-20T06:39:44;101182.75;;;9.66;100.00
43364;BME280;40636;52.424;-1.948;2023-05-20T06:42:13;101185.69;;;9.78;100.00
43364;BME280;40636;52.424;-1.948;2023-05-20T06:44:40;101187.19;;;9.74;100.00
43364;BME280;40636;52.424;-1.948;2023-05-20T06:47:06;101183.41;;;9.69;100.00
43364;BME280;40636;52.424;-1.948;2023-05-20T06:49:33;101184.22;;;9.76;100.00
43364;BME280;40636;52.424;-1.948;2023-05-20T06:52:00;101181.09;;;9.65;100.00
43364;BME280;40636;52.424;-1.948;2023-05-20T06:54:27;101177.34;;;9.47;100.00
43364;BME280;40636;52.424;-1.948;2023-05-20T06:56:54;101183.63;;;9.60;100.00
43364;BME280;40636;52.424;-1.948;2023-05-20T06:59:20;101185.75;;;9.58;100.00
43364;BME280;40636;52.424;-1.948;2023-05-20T07:01:47;101177.25;;;9.80;100.00
43364;BME280;40636;52.424;-1.948;2023-05-20T07:04:16;101177.63;;;9.90;100.00
43364;BME280;40636;52.424;-1.948;2023-05-20T07:06:43;101177.22;;;9.93;100.00
43364;BME280;40636;52.424;-1.948;2023-05-20T07:09:10;101177.59;;;10.03;100.00
43364;BME280;40636;52.424;-1.948;2023-05-20T07:11:44;101168.34;;;9.98;100.00
43364;BME280;40636;52.424;-1.948;2023-05-20T07:14:17;101171.19;;;10.23;100.00
43364;BME280;40636;52.424;-1.948;2023-05-20T07:16:45;101163.13;;;10.34;100.00
43364;BME280;40636;52.424;-1.948;2023-05-20T07:19:12;101161.69;;;10.32;100.00
43364;BME280;40636;52.424;-1.948;2023-05-20T07:21:39;101168.03;;;10.26;100.00
43364;BME280;40636;52.424;-1.948;2023-05-20T07:24:06;101158.66;;;10.40;100.00
43364;BME280;40636;52.424;-1.948;2023-05-20T07:26:33;101153.38;;;10.45;100.00
43364;BME280;40636;52.424;-1.948;2023-05-20T07:29:05;101151.16;;;10.60;100.00
43364;BME280;40636;52.424;-1.948;2023-05-20T07:31:40;101150.41;;;10.78;100.00
43364;BME280;40636;52.424;-1.948;2023-05-20T07:34:08;101155.16;;;10.89;100.00
43364;BME280;40636;52.424;-1.948;2023-05-20T07:36:34;101162.84;;;10.81;100.00
43364;BME280;40636;52.424;-1.948;2023-05-20T07:39:03;101170.03;;;10.82;100.00
43364;BME280;40636;52.424;-1.948;2023-05-20T07:41:36;101174.94;;;11.05;100.00
43364;BME280;40636;52.424;-1.948;2023-05-20T07:44:04;101171.91;;;11.13;100.00
43364;BME280;40636;52.424;-1.948;2023-05-20T07:46:40;101179.13;;;11.07;100.00
43364;BME280;40636;52.424;-1.948;2023-05-20T07:49:07;101167.19;;;11.20;100.00
43364;BME280;40636;52.424;-1.948;2023-05-20T07:51:35;101175.94;;;11.10;100.00
43364;BME280;40636;52.424;-1.948;2023-05-20T07:54:06;101173.31;;;11.22;100.00
43364;BME280;40636;52.424;-1.948;2023-05-20T07:56:35;101164.91;;;11.35;100.00
43364;BME280;40636;52.424;-1.948;2023-05-20T07:59:02;101168.03;;;11.21;100.00
43364;BME280;40636;52.424;-1.948;2023-05-20T08:01:29;101174.09;;;11.04;100.00
43364;BME280;40636;52.424;-1.948;2023-05-20T08:04:06;101169.25;;;11.25;100.00
43364;BME280;40636;52.424;-1.948;2023-05-20T08:06:33;101161.94;;;11.18;100.00
43364;BME280;40636;52.424;-1.948;2023-05-20T08:09:05;101158.50;;;11.23;100.00
43364;BME280;40636;52.424;-1.948;2023-05-20T08:11:33;101149.06;;;11.37;100.00
43364;BME280;40636;52.424;-1.948;2023-05-20T08:14:02;101164.09;;;11.35;100.00
43364;BME280;40636;52.424;-1.948;2023-05-20T08:16:47;101158.69;;;11.22;100.00
43364;BME280;40636;52.424;-1.948;2023-05-20T08:19:16;101155.91;;;11.28;100.00
43364;BME280;40636;52.424;-1.948;2023-05-20T08:21:46;101161.13;;;11.36;100.00
43364;BME280;40636;52.424;-1.948;2023-05-20T08:24:24;101164.91;;;11.35;100.00
43364;BME280;40636;52.424;-1.948;2023-05-20T08:26:53;101151.84;;;11.31;100.00
43364;BME280;40636;52.424;-1.948;2023-05-20T08:29:21;101163.03;;;11.36;100.00
43364;BME280;40636;52.424;-1.948;2023-05-20T08:31:50;101151.53;;;11.46;100.00
43364;BME280;40636;52.424;-1.948;2023-05-20T08:34:33;101151.75;;;11.62;100.00
43364;BME280;40636;52.424;-1.948;2023-05-20T08:37:00;101157.72;;;11.78;100.00
43364;BME280;40636;52.424;-1.948;2023-05-20T08:39:27;101148.66;;;11.77;100.00
43364;BME280;40636;52.424;-1.948;2023-05-20T08:41:54;101159.81;;;11.82;100.00
43364;BME280;40636;52.424;-1.948;2023-05-20T08:44:23;101147.50;;;11.85;100.00
43364;BME280;40636;52.424;-1.948;2023-05-20T08:46:52;101148.84;;;11.76;100.00
43364;BME280;40636;52.424;-1.948;2023-05-20T08:49:20;101148.53;;;11.90;100.00
43364;BME280;40636;52.424;-1.948;2023-05-20T08:51:47;101146.75;;;11.96;100.00
43364;BME280;40636;52.424;-1.948;2023-05-20T08:54:15;101144.56;;;12.16;100.00
43364;BME280;40636;52.424;-1.948;2023-05-20T08:56:43;101150.28;;;12.33;100.00
43364;BME280;40636;52.424;-1.948;2023-05-20T08:59:10;101145.78;;;12.21;100.00
43364;BME280;40636;52.424;-1.948;2023-05-20T09:01:42;101145.78;;;12.21;100.00
43364;BME280;40636;52.424;-1.948;2023-05-20T09:04:09;101145.94;;;12.26;100.00
43364;BME280;40636;52.424;-1.948;2023-05-20T09:06:44;101149.44;;;12.33;100.00
43364;BME280;40636;52.424;-1.948;2023-05-20T09:09:13;101142.72;;;12.29;100.00
43364;BME280;40636;52.424;-1.948;2023-05-20T09:11:40;101142.53;;;12.42;100.00
43364;BME280;40636;52.424;-1.948;2023-05-20T09:14:08;101132.75;;;12.46;100.00
43364;BME280;40636;52.424;-1.948;2023-05-20T09:16:38;101142.34;;;12.55;100.00
43364;BME280;40636;52.424;-1.948;2023-05-20T09:19:05;101136.97;;;12.60;100.00
43364;BME280;40636;52.424;-1.948;2023-05-20T09:21:45;101133.28;;;12.66;100.00
43364;BME280;40636;52.424;-1.948;2023-05-20T09:24:13;101137.34;;;12.64;100.00
43364;BME280;40636;52.424;-1.948;2023-05-20T09:26:42;101122.13;;;12.50;100.00
43364;BME280;40636;52.424;-1.948;2023-05-20T09:29:10;101125.84;;;12.67;100.00
43364;BME280;40636;52.424;-1.948;2023-05-20T09:31:37;101123.00;;;12.74;100.00
43364;BME280;40636;52.424;-1.948;2023-05-20T09:34:05;101122.81;;;12.87;100.00
43364;BME280;40636;52.424;-1.948;2023-05-20T09:36:33;101127.72;;;12.97;100.00
43364;BME280;40636;52.424;-1.948;2023-05-20T09:39:02;101130.22;;;12.98;100.00
43364;BME280;40636;52.424;-1.948;2023-05-20T09:41:34;101123.88;;;12.86;100.00
43364;BME280;40636;52.424;-1.948;2023-05-20T09:44:04;101119.91;;;12.93;100.00
43364;BME280;40636;52.424;-1.948;2023-05-20T09:46:33;101125.44;;;12.93;100.00
43364;BME280;40636;52.424;-1.948;2023-05-20T09:49:02;101123.28;;;12.95;100.00
43364;BME280;40636;52.424;-1.948;2023-05-20T09:51:30;101122.75;;;13.29;100.00
43364;BME280;40636;52.424;-1.948;2023-05-20T09:53:58;101114.69;;;13.39;100.00
43364;BME280;40636;52.424;-1.948;2023-05-20T09:56:27;101106.81;;;13.31;100.00
43364;BME280;40636;52.424;-1.948;2023-05-20T09:58:56;101107.75;;;13.48;100.00
43364;BME280;40636;52.424;-1.948;2023-05-20T10:01:24;101106.31;;;13.45;100.00
43364;BME280;40636;52.424;-1.948;2023-05-20T10:03:51;101100.34;;;13.37;100.00
43364;BME280;40636;52.424;-1.948;2023-05-20T10:09:36;101098.25;;;13.56;100.00
43364;BME280;40636;52.424;-1.948;2023-05-20T10:20:16;101083.41;;;13.97;100.00
43364;BME280;40636;52.424;-1.948;2023-05-20T10:22:54;101093.50;;;13.91;100.00
43364;BME280;40636;52.424;-1.948;2023-05-20T10:25:26;101092.06;;;13.89;100.00
43364;BME280;40636;52.424;-1.948;2023-05-20T10:28:04;101088.09;;;13.96;100.00
43364;BME280;40636;52.424;-1.948;2023-05-20T10:30:33;101087.16;;;13.91;100.00
43364;BME280;40636;52.424;-1.948;2023-05-20T10:33:04;101085.22;;;13.91;100.00
43364;BME280;40636;52.424;-1.948;2023-05-20T10:35:32;101089.72;;;14.09;100.00
43364;BME280;40636;52.424;-1.948;2023-05-20T10:38:10;101075.38;;;14.24;100.00
43364;BME280;40636;52.424;-1.948;2023-05-20T10:40:37;101071.75;;;14.35;100.00
43364;BME280;40636;52.424;-1.948;2023-05-20T10:43:13;101081.28;;;14.44;100.00
43364;BME280;40636;52.424;-1.948;2023-05-20T10:45:54;101062.19;;;14.43;100.00
43364;BME280;40636;52.424;-1.948;2023-05-20T10:48:32;101068.03;;;14.30;100.00
43364;BME280;40636;52.424;-1.948;2023-05-20T10:51:01;101061.53;;;14.36;100.00
43364;BME280;40636;52.424;-1.948;2023-05-20T10:53:38;101064.94;;;14.26;100.00
43364;BME280;40636;52.424;-1.948;2023-05-20T10:56:15;101056.09;;;14.41;100.00
43364;BME280;40636;52.424;-1.948;2023-05-20T10:58:43;101058.47;;;14.49;100.00
43364;BME280;40636;52.424;-1.948;2023-05-20T11:01:10;101044.97;;;14.36;100.00
43364;BME280;40636;52.424;-1.948;2023-05-20T11:03:37;101042.84;;;14.43;100.00
43364;BME280;40636;52.424;-1.948;2023-05-20T11:06:18;101035.84;;;14.35;100.00
43364;BME280;40636;52.424;-1.948;2023-05-20T11:08:45;101046.06;;;14.52;100.00
43364;BME280;40636;52.424;-1.948;2023-05-20T11:11:12;101029.94;;;14.60;100.00
43364;BME280;40636;52.424;-1.948;2023-05-20T11:13:40;101035.63;;;14.70;100.00
43364;BME280;40636;52.424;-1.948;2023-05-20T11:16:07;101027.59;;;14.86;100.00
43364;BME280;40636;52.424;-1.948;2023-05-20T11:18:34;101027.50;;;14.64;100.00
43364;BME280;40636;52.424;-1.948;2023-05-20T11:21:01;101024.47;;;14.65;100.00
43364;BME280;40636;52.424;-1.948;2023-05-20T11:23:29;101030.00;;;14.82;100.00
43364;BME280;40636;52.424;-1.948;2023-05-20T11:25:56;101027.66;;;14.91;100.00
43364;BME280;40636;52.424;-1.948;2023-05-20T11:28:23;101029.31;;;15.09;100.00
43364;BME280;40636;52.424;-1.948;2023-05-20T11:30:51;101020.50;;;15.12;100.00
43364;BME280;40636;52.424;-1.948;2023-05-20T11:33:24;101020.72;;;15.27;100.00
43364;BME280;40636;52.424;-1.948;2023-05-20T11:35:52;101022.50;;;15.16;100.00
43364;BME280;40636;52.424;-1.948;2023-05-20T11:38:23;101024.34;;;15.11;100.00
43364;BME280;40636;52.424;-1.948;2023-05-20T11:40:54;101014.47;;;15.15;100.00
43364;BME280;40636;52.424;-1.948;2023-05-20T11:43:22;101017.22;;;15.15;100.00
43364;BME280;40636;52.424;-1.948;2023-05-20T11:45:55;101004.75;;;15.12;100.00
43364;BME280;40636;52.424;-1.948;2023-05-20T11:48:25;101018.19;;;15.26;100.00
43364;BME280;40636;52.424;-1.948;2023-05-20T11:50:55;101012.03;;;15.18;100.00
43364;BME280;40636;52.424;-1.948;2023-05-20T11:53:23;101011.53;;;15.21;100.00
43364;BME280;40636;52.424;-1.948;2023-05-20T11:55:52;101012.09;;;15.23;100.00
43364;BME280;40636;52.424;-1.948;2023-05-20T11:58:26;101009.34;;;15.23;99.19
43364;BME280;40636;52.424;-1.948;2023-05-20T12:00:54;101010.13;;;15.41;100.00
43364;BME280;40636;52.424;-1.948;2023-05-20T12:03:39;101007.47;;;15.51;100.00
43364;BME280;40636;52.424;-1.948;2023-05-20T12:06:10;101005.28;;;15.53;99.42
43364;BME280;40636;52.424;-1.948;2023-05-20T12:08:39;101001.84;;;15.63;99.28
43364;BME280;40636;52.424;-1.948;2023-05-20T12:11:06;100991.44;;;15.53;100.00
43364;BME280;40636;52.424;-1.948;2023-05-20T12:13:33;100998.63;;;15.71;98.93
43364;BME280;40636;52.424;-1.948;2023-05-20T12:16:01;100987.53;;;15.71;97.53
43364;BME280;40636;52.424;-1.948;2023-05-20T12:18:31;100989.84;;;15.57;91.02
43364;BME280;40636;52.424;-1.948;2023-05-20T12:21:05;100986.06;;;15.63;94.98
43364;BME280;40636;52.424;-1.948;2023-05-20T12:23:32;100991.19;;;15.71;82.48
43364;BME280;40636;52.424;-1.948;2023-05-20T12:26:00;100990.22;;;15.88;94.50
43364;BME280;40636;52.424;-1.948;2023-05-20T12:34:35;100962.22;;;15.84;94.46
43364;BME280;40636;52.424;-1.948;2023-05-20T12:37:09;100969.28;;;15.97;100.00
43364;BME280;40636;52.424;-1.948;2023-05-20T12:39:36;100959.00;;;15.92;100.00
43364;BME280;40636;52.424;-1.948;2023-05-20T12:42:10;100964.06;;;16.01;100.00
43364;BME280;40636;52.424;-1.948;2023-05-20T12:44:37;100965.31;;;15.88;92.94
43364;BME280;40636;52.424;-1.948;2023-05-20T12:47:04;100955.97;;;15.94;100.00
43364;BME280;40636;52.424;-1.948;2023-05-20T12:49:31;100952.34;;;15.93;100.00
43364;BME280;40636;52.424;-1.948;2023-05-20T12:51:58;100953.41;;;16.14;100.00
43364;BME280;40636;52.424;-1.948;2023-05-20T12:54:28;100951.63;;;16.03;99.39
43364;BME280;40636;52.424;-1.948;2023-05-20T12:56:55;100959.88;;;15.98;92.32
43364;BME280;40636;52.424;-1.948;2023-05-20T12:59:23;100960.59;;;16.15;97.58
43364;BME280;40636;52.424;-1.948;2023-05-20T13:01:49;100954.63;;;16.29;100.00